sensor_id;sensor_type;location;lat;lon;timestamp;P1;durP1;ratioP1;P2;durP2;ratioP2
75744;SDS011;74462;51.366;-0.222;2024-01-30T00:00:48;12.20;;;8.50;;
75744;SDS011;74462;51.366;-0.222;2024-01-30T00:01:52;10.20;;;5.60;;
75744;SDS011;74462;51.366;-0.222;2024-01-30T00:02:57;13.90;;;6.40;;
75744;SDS011;74462;51.366;-0.222;2024-01-30T00:04:01;12.30;;;6.60;;
75744;SDS011;74462;51.366;-0.222;2024-01-30T00:05:07;9.70;;;7.30;;
75744;SDS011;74462;51.366;-0.222;2024-01-30T00:06:11;8.90;;;7.00;;
75744;SDS011;74462;51.366;-0.222;2024-01-30T00:07:16;11.10;;;7.20;;
75744;SDS011;74462;51.366;-0.222;2024-01-30T00:08:21;9.30;;;5.00;;
75744;SDS011;74462;51.366;-0.222;2024-01-30T00:09:25;14.80;;;9.20;;
75744;SDS011;74462;51.366;-0.222;2024-01-30T00:10:30;11.00;;;6.30;;
75744;SDS011;74462;51.366;-0.222;2024-01-30T00:11:34;10.40;;;6.80;;
75744;SDS011;74462;51.366;-0.222;2024-01-30T00:12:39;10.20;;;8.10;;
75744;SDS011;74462;51.366;-0.222;2024-01-30T00:13:43;12.60;;;6.50;;
75744;SDS011;74462;51.366;-0.222;2024-01-30T00:14:48;11.90;;;7.80;;
75744;SDS011;74462;51.366;-0.222;2024-01-30T00:15:53;8.60;;;6.70;;
75744;SDS011;74462;51.366;-0.222;2024-01-30T00:16:57;9.40;;;5.50;;
75744;SDS011;74462;51.366;-0.222;2024-01-30T00:18:02;11.90;;;7.30;;
75744;SDS011;74462;51.366;-0.222;2024-01-30T00:19:06;10.60;;;6.90;;
75744;SDS011;74462;51.366;-0.222;2024-01-30T00:20:11;8.70;;;7.40;;
75744;SDS011;74462;51.366;-0.222;2024-01-30T00:21:16;11.10;;;7.70;;
75744;SDS011;74462;51.366;-0.222;2024-01-30T00:22:20;11.50;;;6.80;;
75744;SDS011;74462;51.366;-0.222;2024-01-30T00:23:25;10.70;;;5.60;;
75744;SDS011;74462;51.366;-0.222;2024-01-30T00:24:29;8.70;;;6.00;;
75744;SDS011;74462;51.366;-0.222;2024-01-30T00:25:34;8.60;;;5.80;;
75744;SDS011;74462;51.366;-0.222;2024-01-30T00:26:38;10.80;;;6.40;;
75744;SDS011;74462;51.366;-0.222;2024-01-30T00:27:43;10.50;;;7.50;;
75744;SDS011;74462;51.366;-0.222;2024-01-30T00:28:47;10.40;;;6.60;;
75744;SDS011;74462;51.366;-0.222;2024-01-30T00:29:52;7.80;;;5.30;;
75744;SDS011;74462;51.366;-0.222;2024-01-30T00:30:56;11.60;;;4.60;;
75744;SDS011;74462;51.366;-0.222;2024-01-30T00:32:01;12.70;;;5.20;;
75744;SDS011;74462;51.366;-0.222;2024-01-30T00:33:05;9.90;;;4.70;;
75744;SDS011;74462;51.366;-0.222;2024-01-30T00:34:10;12.80;;;6.40;;
75744;SDS011;74462;51.366;-0.222;2024-01-30T00:35:15;10.20;;;4.50;;
75744;SDS011;74462;51.366;-0.222;2024-01-30T00:36:19;7.50;;;5.40;;
75744;SDS011;74462;51.366;-0.222;2024-01-30T00:37:24;6.20;;;4.90;;
75744;SDS011;74462;51.366;-0.222;2024-01-30T00:38:28;7.70;;;4.20;;
75744;SDS011;74462;51.366;-0.222;2024-01-30T00:39:33;8.60;;;6.10;;
75744;SDS011;74462;51.366;-0.222;2024-01-30T00:40:37;12.90;;;6.40;;
75744;SDS011;74462;51.366;-0.222;2024-01-30T00:41:42;8.50;;;4.70;;
75744;SDS011;74462;51.366;-0.222;2024-01-30T00:42:46;6.70;;;4.00;;
75744;SDS011;74462;51.366;-0.222;2024-01-30T00:43:51;8.40;;;4.30;;
75744;SDS011;74462;51.366;-0.222;2024-01-30T00:44:55;8.90;;;5.60;;
75744;SDS011;74462;51.366;-0.222;2024-01-30T00:46:00;10.60;;;4.70;;
75744;SDS011;74462;51.366;-0.222;2024-01-30T00:47:04;8.70;;;4.70;;
75744;SDS011;74462;51.366;-0.222;2024-01-30T00:48:09;5.40;;;4.90;;
75744;SDS011;74462;51.366;-0.222;2024-01-30T00:49:14;5.60;;;3.90;;
75744;SDS011;74462;51.366;-0.222;2024-01-30T00:50:18;8.30;;;3.50;;
75744;SDS011;74462;51.366;-0.222;2024-01-30T00:51:23;7.20;;;4.50;;
75744;SDS011;74462;51.366;-0.222;2024-01-30T00:52:27;4.20;;;3.40;;
75744;SDS011;74462;51.366;-0.222;2024-01-30T00:53:32;4.40;;;3.00;;
75744;SDS011;74462;51.366;-0.222;2024-01-30T00:54:36;3.50;;;2.30;;
75744;SDS011;74462;51.366;-0.222;2024-01-30T00:55:41;8.40;;;4.30;;
75744;SDS011;74462;51.366;-0.222;2024-01-30T00:56:45;5.60;;;2.60;;
75744;SDS011;74462;51.366;-0.222;2024-01-30T00:57:50;6.20;;;3.60;;
75744;SDS011;74462;51.366;-0.222;2024-01-30T00:58:55;4.20;;;3.70;;
75744;SDS011;74462;51.366;-0.222;2024-01-30T00:59:59;5.90;;;3.40;;
75744;SDS011;74462;51.366;-0.222;2024-01-30T01:01:04;5.90;;;2.90;;
75744;SDS011;74462;51.366;-0.222;2024-01-30T01:02:09;6.60;;;4.00;;
75744;SDS011;74462;51.366;-0.222;2024-01-30T01:03:15;7.10;;;2.90;;
75744;SDS011;74462;51.366;-0.222;2024-01-30T01:04:19;5.20;;;3.00;;
75744;SDS011;74462;51.366;-0.222;2024-01-30T01:05:24;7.40;;;2.90;;
75744;SDS011;74462;51.366;-0.222;2024-01-30T01:06:28;7.70;;;3.40;;
75744;SDS011;74462;51.366;-0.222;2024-01-30T01:07:33;6.90;;;2.40;;
75744;SDS011;74462;51.366;-0.222;2024-01-30T01:08:37;5.10;;;2.50;;
75744;SDS011;74462;51.366;-0.222;2024-01-30T01:09:42;8.30;;;3.70;;
75744;SDS011;74462;51.366;-0.222;2024-01-30T01:10:46;3.00;;;1.90;;
75744;SDS011;74462;51.366;-0.222;2024-01-30T01:11:51;6.40;;;2.70;;
75744;SDS011;74462;51.366;-0.222;2024-01-30T01:12:55;5.00;;;3.00;;
75744;SDS011;74462;51.366;-0.222;2024-01-30T01:14:00;5.80;;;2.70;;
75744;SDS011;74462;51.366;-0.222;2024-01-30T01:15:05;4.10;;;3.00;;
75744;SDS011;74462;51.366;-0.222;2024-01-30T01:16:11;4.00;;;2.60;;
75744;SDS011;74462;51.366;-0.222;2024-01-30T01:17:15;3.20;;;2.20;;
75744;SDS011;74462;51.366;-0.222;2024-01-30T01:18:21;3.90;;;2.10;;
75744;SDS011;74462;51.366;-0.222;2024-01-30T01:19:25;3.90;;;2.60;;
75744;SDS011;74462;51.366;-0.222;2024-01-30T01:20:29;4.60;;;3.10;;
75744;SDS011;74462;51.366;-0.222;2024-01-30T01:21:34;6.30;;;3.10;;
75744;SDS011;74462;51.366;-0.222;2024-01-30T01:22:39;5.30;;;2.50;;
75744;SDS011;74462;51.366;-0.222;2024-01-30T01:23:43;2.00;;;1.80;;
75744;SDS011;74462;51.366;-0.222;2024-01-30T01:24:48;3.90;;;1.90;;
75744;SDS011;74462;51.366;-0.222;2024-01-30T01:25:52;4.50;;;2.00;;
75744;SDS011;74462;51.366;-0.222;2024-01-30T01:26:57;2.40;;;2.10;;
75744;SDS011;74462;51.366;-0.222;2024-01-30T01:28:02;4.60;;;2.60;;
75744;SDS011;74462;51.366;-0.222;2024-01-30T01:29:07;2.60;;;1.80;;
75744;SDS011;74462;51.366;-0.222;2024-01-30T01:30:13;3.50;;;2.30;;
75744;SDS011;74462;51.366;-0.222;2024-01-30T01:31:22;1.90;;;1.50;;
75744;SDS011;74462;51.366;-0.222;2024-01-30T01:32:31;4.80;;;2.00;;
75744;SDS011;74462;51.366;-0.222;2024-01-30T01:33:35;3.00;;;1.60;;
75744;SDS011;74462;51.366;-0.222;2024-01-30T01:34:40;5.70;;;1.70;;
75744;SDS011;74462;51.366;-0.222;2024-01-30T01:35:44;6.60;;;2.20;;
75744;SDS011;74462;51.366;-0.222;2024-01-30T01:36:48;3.60;;;2.50;;
75744;SDS011;74462;51.366;-0.222;2024-01-30T01:37:56;3.60;;;2.00;;
75744;SDS011;74462;51.366;-0.222;2024-01-30T01:39:01;3.40;;;1.30;;
75744;SDS011;74462;51.366;-0.222;2024-01-30T01:40:07;5.40;;;1.60;;
75744;SDS011;74462;51.366;-0.222;2024-01-30T01:41:12;2.40;;;1.90;;
75744;SDS011;74462;51.366;-0.222;2024-01-30T01:42:17;5.00;;;1.80;;
75744;SDS011;74462;51.366;-0.222;2024-01-30T01:43:21;3.00;;;2.20;;
75744;SDS011;74462;51.366;-0.222;2024-01-30T01:44:26;2.90;;;1.60;;
75744;SDS011;74462;51.366;-0.222;2024-01-30T01:45:31;4.60;;;1.50;;
75744;SDS011;74462;51.366;-0.222;2024-01-30T01:46:35;3.90;;;1.70;;
75744;SDS011;74462;51.366;-0.222;2024-01-30T01:47:41;3.50;;;1.40;;
75744;SDS011;74462;51.366;-0.222;2024-01-30T01:48:47;3.10;;;2.10;;
75744;SDS011;74462;51.366;-0.222;2024-01-30T01:49:52;3.40;;;1.50;;
75744;SDS011;74462;51.366;-0.222;2024-01-30T01:50:56;2.40;;;1.60;;
75744;SDS011;74462;51.366;-0.222;2024-01-30T01:52:01;2.50;;;1.20;;
75744;SDS011;74462;51.366;-0.222;2024-01-30T01:53:07;2.50;;;1.20;;
75744;SDS011;74462;51.366;-0.222;2024-01-30T01:54:12;3.70;;;2.00;;
75744;SDS011;74462;51.366;-0.222;2024-01-30T01:55:18;4.60;;;1.70;;
75744;SDS011;74462;51.366;-0.222;2024-01-30T01:56:25;4.30;;;2.10;;
75744;SDS011;74462;51.366;-0.222;2024-01-30T01:57:31;4.60;;;2.00;;
75744;SDS011;74462;51.366;-0.222;2024-01-30T01:58:36;1.50;;;1.40;;
75744;SDS011;74462;51.366;-0.222;2024-01-30T01:59:41;3.60;;;1.80;;
75744;SDS011;74462;51.366;-0.222;2024-01-30T02:00:46;3.10;;;1.20;;
75744;SDS011;74462;51.366;-0.222;2024-01-30T02:01:50;2.00;;;1.20;;
75744;SDS011;74462;51.366;-0.222;2024-01-30T02:02:56;3.20;;;2.60;;
75744;SDS011;74462;51.366;-0.222;2024-01-30T02:04:02;3.60;;;2.80;;
75744;SDS011;74462;51.366;-0.222;2024-01-30T02:05:07;2.80;;;1.30;;
75744;SDS011;74462;51.366;-0.222;2024-01-30T02:06:12;2.50;;;1.90;;
75744;SDS011;74462;51.366;-0.222;2024-01-30T02:07:17;4.20;;;2.20;;
75744;SDS011;74462;51.366;-0.222;2024-01-30T02:08:23;3.50;;;2.50;;
75744;SDS011;74462;51.366;-0.222;2024-01-30T02:09:27;3.80;;;2.00;;
75744;SDS011;74462;51.366;-0.222;2024-01-30T02:10:32;1.90;;;1.10;;
75744;SDS011;74462;51.366;-0.222;2024-01-30T02:11:36;3.20;;;2.20;;
75744;SDS011;74462;51.366;-0.222;2024-01-30T02:12:42;1.30;;;1.10;;
75744;SDS011;74462;51.366;-0.222;2024-01-30T02:13:46;2.50;;;2.10;;
75744;SDS011;74462;51.366;-0.222;2024-01-30T02:14:51;3.70;;;1.40;;
75744;SDS011;74462;51.366;-0.222;2024-01-30T02:15:56;2.60;;;1.40;;
75744;SDS011;74462;51.366;-0.222;2024-01-30T02:17:01;6.20;;;5.80;;
75744;SDS011;74462;51.366;-0.222;2024-01-30T02:18:06;2.80;;;1.50;;
75744;SDS011;74462;51.366;-0.222;2024-01-30T02:19:10;1.30;;;1.20;;
75744;SDS011;74462;51.366;-0.222;2024-01-30T02:20:15;2.30;;;1.40;;
75744;SDS011;74462;51.366;-0.222;2024-01-30T02:21:19;2.80;;;2.60;;
75744;SDS011;74462;51.366;-0.222;2024-01-30T02:22:24;2.30;;;1.10;;
75744;SDS011;74462;51.366;-0.222;2024-01-30T02:23:28;1.80;;;1.70;;
75744;SDS011;74462;51.366;-0.222;2024-01-30T02:24:36;1.30;;;1.00;;
75744;SDS011;74462;51.366;-0.222;2024-01-30T02:25:40;3.30;;;1.80;;
75744;SDS011;74462;51.366;-0.222;2024-01-30T02:26:45;3.70;;;2.30;;
75744;SDS011;74462;51.366;-0.222;2024-01-30T02:27:50;2.50;;;2.10;;
75744;SDS011;74462;51.366;-0.222;2024-01-30T02:28:54;2.70;;;1.80;;
75744;SDS011;74462;51.366;-0.222;2024-01-30T02:29:59;2.30;;;1.70;;
75744;SDS011;74462;51.366;-0.222;2024-01-30T02:31:04;2.90;;;2.60;;
75744;SDS011;74462;51.366;-0.222;2024-01-30T02:32:08;1.70;;;1.20;;
75744;SDS011;74462;51.366;-0.222;2024-01-30T02:33:13;2.10;;;1.80;;
75744;SDS011;74462;51.366;-0.222;2024-01-30T02:34:18;3.20;;;1.10;;
75744;SDS011;74462;51.366;-0.222;2024-01-30T02:35:22;1.70;;;1.60;;
75744;SDS011;74462;51.366;-0.222;2024-01-30T02:36:27;1.20;;;0.90;;
75744;SDS011;74462;51.366;-0.222;2024-01-30T02:37:31;1.20;;;1.00;;
75744;SDS011;74462;51.366;-0.222;2024-01-30T02:38:36;1.70;;;1.50;;
75744;SDS011;74462;51.366;-0.222;2024-01-30T02:39:40;2.90;;;1.30;;
75744;SDS011;74462;51.366;-0.222;2024-01-30T02:40:45;4.00;;;1.80;;
75744;SDS011;74462;51.366;-0.222;2024-01-30T02:41:49;2.50;;;1.80;;
75744;SDS011;74462;51.366;-0.222;2024-01-30T02:42:54;2.70;;;1.10;;
75744;SDS011;74462;51.366;-0.222;2024-01-30T02:43:58;2.10;;;1.70;;
75744;SDS011;74462;51.366;-0.222;2024-01-30T02:45:03;1.40;;;1.30;;
75744;SDS011;74462;51.366;-0.222;2024-01-30T02:46:08;3.50;;;2.60;;
75744;SDS011;74462;51.366;-0.222;2024-01-30T02:47:13;2.80;;;1.40;;
75744;SDS011;74462;51.366;-0.222;2024-01-30T02:48:17;1.50;;;0.90;;
75744;SDS011;74462;51.366;-0.222;2024-01-30T02:49:22;2.70;;;1.30;;
75744;SDS011;74462;51.366;-0.222;2024-01-30T02:50:27;1.60;;;1.50;;
75744;SDS011;74462;51.366;-0.222;2024-01-30T02:51:31;1.20;;;1.00;;
75744;SDS011;74462;51.366;-0.222;2024-01-30T02:52:36;3.30;;;1.80;;
75744;SDS011;74462;51.366;-0.222;2024-01-30T02:53:40;1.90;;;0.90;;
75744;SDS011;74462;51.366;-0.222;2024-01-30T02:54:45;2.10;;;0.90;;
75744;SDS011;74462;51.366;-0.222;2024-01-30T02:55:49;2.10;;;1.70;;
75744;SDS011;74462;51.366;-0.222;2024-01-30T02:56:53;1.60;;;1.30;;
75744;SDS011;74462;51.366;-0.222;2024-01-30T02:57:58;2.80;;;2.00;;
75744;SDS011;74462;51.366;-0.222;2024-01-30T02:59:02;1.80;;;1.30;;
75744;SDS011;74462;51.366;-0.222;2024-01-30T03:00:08;1.80;;;1.70;;
75744;SDS011;74462;51.366;-0.222;2024-01-30T03:01:13;2.30;;;1.10;;
75744;SDS011;74462;51.366;-0.222;2024-01-30T03:02:18;1.60;;;1.40;;
75744;SDS011;74462;51.366;-0.222;2024-01-30T03:03:22;1.90;;;1.60;;
75744;SDS011;74462;51.366;-0.222;2024-01-30T03:04:27;2.60;;;1.90;;
75744;SDS011;74462;51.366;-0.222;2024-01-30T03:05:32;2.50;;;2.30;;
75744;SDS011;74462;51.366;-0.222;2024-01-30T03:06:36;2.80;;;2.20;;
75744;SDS011;74462;51.366;-0.222;2024-01-30T03:07:41;3.90;;;1.80;;
75744;SDS011;74462;51.366;-0.222;2024-01-30T03:08:45;2.40;;;1.30;;
75744;SDS011;74462;51.366;-0.222;2024-01-30T03:09:49;3.60;;;1.60;;
75744;SDS011;74462;51.366;-0.222;2024-01-30T03:10:54;2.70;;;1.30;;
75744;SDS011;74462;51.366;-0.222;2024-01-30T03:11:58;2.90;;;1.50;;
75744;SDS011;74462;51.366;-0.222;2024-01-30T03:13:03;1.20;;;1.10;;
75744;SDS011;74462;51.366;-0.222;2024-01-30T03:14:08;3.50;;;1.10;;
75744;SDS011;74462;51.366;-0.222;2024-01-30T03:15:13;3.00;;;1.00;;
75744;SDS011;74462;51.366;-0.222;2024-01-30T03:16:17;1.90;;;1.50;;
75744;SDS011;74462;51.366;-0.222;2024-01-30T03:17:22;1.20;;;1.20;;
75744;SDS011;74462;51.366;-0.222;2024-01-30T03:18:26;1.50;;;1.00;;
75744;SDS011;74462;51.366;-0.222;2024-01-30T03:19:31;2.50;;;1.80;;
75744;SDS011;74462;51.366;-0.222;2024-01-30T03:20:35;1.70;;;1.40;;
75744;SDS011;74462;51.366;-0.222;2024-01-30T03:21:40;1.80;;;1.60;;
75744;SDS011;74462;51.366;-0.222;2024-01-30T03:22:44;2.10;;;1.30;;
75744;SDS011;74462;51.366;-0.222;2024-01-30T03:23:49;2.60;;;1.00;;
75744;SDS011;74462;51.366;-0.222;2024-01-30T03:24:53;4.50;;;1.20;;
75744;SDS011;74462;51.366;-0.222;2024-01-30T03:25:58;2.10;;;1.10;;
75744;SDS011;74462;51.366;-0.222;2024-01-30T03:27:03;1.90;;;1.10;;
75744;SDS011;74462;51.366;-0.222;2024-01-30T03:28:07;1.30;;;1.20;;
75744;SDS011;74462;51.366;-0.222;2024-01-30T03:29:12;1.70;;;1.60;;
75744;SDS011;74462;51.366;-0.222;2024-01-30T03:30:17;3.20;;;2.50;;
75744;SDS011;74462;51.366;-0.222;2024-01-30T03:31:22;3.50;;;3.20;;
75744;SDS011;74462;51.366;-0.222;2024-01-30T03:32:26;1.60;;;1.50;;
75744;SDS011;74462;51.366;-0.222;2024-01-30T03:33:31;1.00;;;0.90;;
75744;SDS011;74462;51.366;-0.222;2024-01-30T03:34:35;1.30;;;1.00;;
75744;SDS011;74462;51.366;-0.222;2024-01-30T03:35:40;1.60;;;1.50;;
75744;SDS011;74462;51.366;-0.222;2024-01-30T03:36:45;2.60;;;1.40;;
75744;SDS011;74462;51.366;-0.222;2024-01-30T03:37:49;2.10;;;1.70;;
75744;SDS011;74462;51.366;-0.222;2024-01-30T03:38:53;2.90;;;1.30;;
75744;SDS011;74462;51.366;-0.222;2024-01-30T03:39:58;1.00;;;0.80;;
75744;SDS011;74462;51.366;-0.222;2024-01-30T03:41:02;1.00;;;0.80;;
75744;SDS011;74462;51.366;-0.222;2024-01-30T03:42:10;3.40;;;1.30;;
75744;SDS011;74462;51.366;-0.222;2024-01-30T03:43:14;1.20;;;1.10;;
75744;SDS011;74462;51.366;-0.222;2024-01-30T03:44:19;2.70;;;2.60;;
75744;SDS011;74462;51.366;-0.222;2024-01-30T03:45:23;2.90;;;2.70;;
75744;SDS011;74462;51.366;-0.222;2024-01-30T03:46:28;2.20;;;1.80;;
75744;SDS011;74462;51.366;-0.222;2024-01-30T03:47:32;2.00;;;0.90;;
75744;SDS011;74462;51.366;-0.222;2024-01-30T03:48:37;1.60;;;1.50;;
75744;SDS011;74462;51.366;-0.222;2024-01-30T03:49:41;2.00;;;1.90;;
75744;SDS011;74462;51.366;-0.222;2024-01-30T03:50:46;2.30;;;1.10;;
75744;SDS011;74462;51.366;-0.222;2024-01-30T03:51:50;1.50;;;1.20;;
75744;SDS011;74462;51.366;-0.222;2024-01-30T03:52:55;1.60;;;1.50;;
75744;SDS011;74462;51.366;-0.222;2024-01-30T03:53:59;2.30;;;1.60;;
75744;SDS011;74462;51.366;-0.222;2024-01-30T03:55:04;2.00;;;1.00;;
75744;SDS011;74462;51.366;-0.222;2024-01-30T03:56:09;2.10;;;2.00;;
75744;SDS011;74462;51.366;-0.222;2024-01-30T03:57:14;0.80;;;0.80;;
75744;SDS011;74462;51.366;-0.222;2024-01-30T03:58:19;1.20;;;1.10;;
75744;SDS011;74462;51.366;-0.222;2024-01-30T03:59:23;1.80;;;1.50;;
75744;SDS011;74462;51.366;-0.222;2024-01-30T04:00:27;3.40;;;1.10;;
75744;SDS011;74462;51.366;-0.222;2024-01-30T04:01:32;2.40;;;2.20;;
75744;SDS011;74462;51.366;-0.222;2024-01-30T04:02:36;1.60;;;1.40;;
75744;SDS011;74462;51.366;-0.222;2024-01-30T04:03:42;2.30;;;1.60;;
75744;SDS011;74462;51.366;-0.222;2024-01-30T04:04:46;2.30;;;2.20;;
75744;SDS011;74462;51.366;-0.222;2024-01-30T04:05:51;1.80;;;1.30;;
75744;SDS011;74462;51.366;-0.222;2024-01-30T04:06:55;2.20;;;0.70;;
75744;SDS011;74462;51.366;-0.222;2024-01-30T04:08:00;2.10;;;1.30;;
75744;SDS011;74462;51.366;-0.222;2024-01-30T04:09:05;1.50;;;1.40;;
75744;SDS011;74462;51.366;-0.222;2024-01-30T04:10:09;1.60;;;1.40;;
75744;SDS011;74462;51.366;-0.222;2024-01-30T04:11:14;1.60;;;1.60;;
75744;SDS011;74462;51.366;-0.222;2024-01-30T04:12:20;2.50;;;1.50;;
75744;SDS011;74462;51.366;-0.222;2024-01-30T04:13:25;2.10;;;2.00;;
75744;SDS011;74462;51.366;-0.222;2024-01-30T04:14:29;2.90;;;2.20;;
75744;SDS011;74462;51.366;-0.222;2024-01-30T04:15:34;1.50;;;1.40;;
75744;SDS011;74462;51.366;-0.222;2024-01-30T04:16:38;2.40;;;1.90;;
75744;SDS011;74462;51.366;-0.222;2024-01-30T04:17:43;1.80;;;1.10;;
75744;SDS011;74462;51.366;-0.222;2024-01-30T04:18:47;1.80;;;1.30;;
75744;SDS011;74462;51.366;-0.222;2024-01-30T04:19:52;2.20;;;1.20;;
75744;SDS011;74462;51.366;-0.222;2024-01-30T04:20:56;1.80;;;1.70;;
75744;SDS011;74462;51.366;-0.222;2024-01-30T04:22:01;1.50;;;1.00;;
75744;SDS011;74462;51.366;-0.222;2024-01-30T04:23:05;0.90;;;0.90;;
75744;SDS011;74462;51.366;-0.222;2024-01-30T04:24:10;2.30;;;2.20;;
75744;SDS011;74462;51.366;-0.222;2024-01-30T04:25:15;1.60;;;1.20;;
75744;SDS011;74462;51.366;-0.222;2024-01-30T04:26:19;2.30;;;2.00;;
75744;SDS011;74462;51.366;-0.222;2024-01-30T04:27:23;2.40;;;1.50;;
75744;SDS011;74462;51.366;-0.222;2024-01-30T04:28:28;2.20;;;1.90;;
75744;SDS011;74462;51.366;-0.222;2024-01-30T04:29:32;1.80;;;1.70;;
75744;SDS011;74462;51.366;-0.222;2024-01-30T04:30:37;1.70;;;1.40;;
75744;SDS011;74462;51.366;-0.222;2024-01-30T04:31:41;1.70;;;1.60;;
75744;SDS011;74462;51.366;-0.222;2024-01-30T04:32:46;2.10;;;1.90;;
75744;SDS011;74462;51.366;-0.222;2024-01-30T04:33:50;2.50;;;2.10;;
75744;SDS011;74462;51.366;-0.222;2024-01-30T04:34:55;1.80;;;1.70;;
75744;SDS011;74462;51.366;-0.222;2024-01-30T04:36:00;2.00;;;1.60;;
75744;SDS011;74462;51.366;-0.222;2024-01-30T04:37:04;1.70;;;1.60;;
75744;SDS011;74462;51.366;-0.222;2024-01-30T04:38:09;1.80;;;1.70;;
75744;SDS011;74462;51.366;-0.222;2024-01-30T04:39:13;2.50;;;1.50;;
75744;SDS011;74462;51.366;-0.222;2024-01-30T04:40:18;2.20;;;2.00;;
75744;SDS011;74462;51.366;-0.222;2024-01-30T04:41:22;1.30;;;1.20;;
75744;SDS011;74462;51.366;-0.222;2024-01-30T04:42:27;2.10;;;2.00;;
75744;SDS011;74462;51.366;-0.222;2024-01-30T04:43:32;1.30;;;1.10;;
75744;SDS011;74462;51.366;-0.222;2024-01-30T04:44:38;1.60;;;1.50;;
75744;SDS011;74462;51.366;-0.222;2024-01-30T04:45:43;2.10;;;2.00;;
75744;SDS011;74462;51.366;-0.222;2024-01-30T04:46:47;4.60;;;3.10;;
75744;SDS011;74462;51.366;-0.222;2024-01-30T04:47:52;2.10;;;2.00;;
75744;SDS011;74462;51.366;-0.222;2024-01-30T04:48:56;1.20;;;1.20;;
75744;SDS011;74462;51.366;-0.222;2024-01-30T04:50:01;1.30;;;1.20;;
75744;SDS011;74462;51.366;-0.222;2024-01-30T04:51:06;1.70;;;1.20;;
75744;SDS011;74462;51.366;-0.222;2024-01-30T04:52:10;2.40;;;2.20;;
75744;SDS011;74462;51.366;-0.222;2024-01-30T04:53:15;1.90;;;1.60;;
75744;SDS011;74462;51.366;-0.222;2024-01-30T04:54:20;2.20;;;2.00;;
75744;SDS011;74462;51.366;-0.222;2024-01-30T04:55:25;1.20;;;1.10;;
75744;SDS011;74462;51.366;-0.222;2024-01-30T04:56:29;1.80;;;1.70;;
75744;SDS011;74462;51.366;-0.222;2024-01-30T04:57:34;1.70;;;1.50;;
75744;SDS011;74462;51.366;-0.222;2024-01-30T04:58:38;1.10;;;1.00;;
75744;SDS011;74462;51.366;-0.222;2024-01-30T04:59:43;1.40;;;1.30;;
75744;SDS011;74462;51.366;-0.222;2024-01-30T05:00:47;2.10;;;2.00;;
75744;SDS011;74462;51.366;-0.222;2024-01-30T05:01:53;2.20;;;2.00;;
75744;SDS011;74462;51.366;-0.222;2024-01-30T05:02:57;3.70;;;1.90;;
75744;SDS011;74462;51.366;-0.222;2024-01-30T05:04:02;2.00;;;1.90;;
75744;SDS011;74462;51.366;-0.222;2024-01-30T05:05:07;2.60;;;1.80;;
75744;SDS011;74462;51.366;-0.222;2024-01-30T05:06:12;1.60;;;1.20;;
75744;SDS011;74462;51.366;-0.222;2024-01-30T05:07:26;2.50;;;2.30;;
75744;SDS011;74462;51.366;-0.222;2024-01-30T05:08:30;2.80;;;1.80;;
75744;SDS011;74462;51.366;-0.222;2024-01-30T05:09:38;2.30;;;1.40;;
75744;SDS011;74462;51.366;-0.222;2024-01-30T05:10:42;2.20;;;1.40;;
75744;SDS011;74462;51.366;-0.222;2024-01-30T05:11:47;3.30;;;2.00;;
75744;SDS011;74462;51.366;-0.222;2024-01-30T05:12:51;2.30;;;1.30;;
75744;SDS011;74462;51.366;-0.222;2024-01-30T05:13:56;2.60;;;1.50;;
75744;SDS011;74462;51.366;-0.222;2024-01-30T05:15:01;2.60;;;2.20;;
75744;SDS011;74462;51.366;-0.222;2024-01-30T05:16:06;2.60;;;1.40;;
75744;SDS011;74462;51.366;-0.222;2024-01-30T05:17:11;4.00;;;3.60;;
75744;SDS011;74462;51.366;-0.222;2024-01-30T05:18:15;1.30;;;1.20;;
75744;SDS011;74462;51.366;-0.222;2024-01-30T05:19:20;1.50;;;1.40;;
75744;SDS011;74462;51.366;-0.222;2024-01-30T05:20:24;1.40;;;1.20;;
75744;SDS011;74462;51.366;-0.222;2024-01-30T05:21:30;2.30;;;2.20;;
75744;SDS011;74462;51.366;-0.222;2024-01-30T05:22:34;2.70;;;2.00;;
75744;SDS011;74462;51.366;-0.222;2024-01-30T05:23:39;1.60;;;1.50;;
75744;SDS011;74462;51.366;-0.222;2024-01-30T05:24:43;3.30;;;2.40;;
75744;SDS011;74462;51.366;-0.222;2024-01-30T05:25:48;3.80;;;2.60;;
75744;SDS011;74462;51.366;-0.222;2024-01-30T05:26:52;2.80;;;2.60;;
75744;SDS011;74462;51.366;-0.222;2024-01-30T05:27:57;2.40;;;2.00;;
75744;SDS011;74462;51.366;-0.222;2024-01-30T05:29:01;2.50;;;2.40;;
75744;SDS011;74462;51.366;-0.222;2024-01-30T05:30:07;2.60;;;2.40;;
75744;SDS011;74462;51.366;-0.222;2024-01-30T05:31:12;1.70;;;1.60;;
75744;SDS011;74462;51.366;-0.222;2024-01-30T05:32:17;1.70;;;1.10;;
75744;SDS011;74462;51.366;-0.222;2024-01-30T05:33:21;2.30;;;2.20;;
75744;SDS011;74462;51.366;-0.222;2024-01-30T05:34:26;1.60;;;1.60;;
75744;SDS011;74462;51.366;-0.222;2024-01-30T05:35:30;1.90;;;1.10;;
75744;SDS011;74462;51.366;-0.222;2024-01-30T05:36:35;1.00;;;1.00;;
75744;SDS011;74462;51.366;-0.222;2024-01-30T05:37:39;1.50;;;1.50;;
75744;SDS011;74462;51.366;-0.222;2024-01-30T05:38:43;1.30;;;1.20;;
75744;SDS011;74462;51.366;-0.222;2024-01-30T05:39:48;1.20;;;1.20;;
75744;SDS011;74462;51.366;-0.222;2024-01-30T05:40:53;1.80;;;1.70;;
75744;SDS011;74462;51.366;-0.222;2024-01-30T05:41:59;2.10;;;2.00;;
75744;SDS011;74462;51.366;-0.222;2024-01-30T05:43:04;1.20;;;1.10;;
75744;SDS011;74462;51.366;-0.222;2024-01-30T05:44:08;2.10;;;2.00;;
75744;SDS011;74462;51.366;-0.222;2024-01-30T05:45:13;2.30;;;2.20;;
75744;SDS011;74462;51.366;-0.222;2024-01-30T05:46:17;1.30;;;1.20;;
75744;SDS011;74462;51.366;-0.222;2024-01-30T05:47:22;2.10;;;1.80;;
75744;SDS011;74462;51.366;-0.222;2024-01-30T05:48:26;3.60;;;3.30;;
75744;SDS011;74462;51.366;-0.222;2024-01-30T05:49:30;2.00;;;1.90;;
75744;SDS011;74462;51.366;-0.222;2024-01-30T05:50:36;1.30;;;1.30;;
75744;SDS011;74462;51.366;-0.222;2024-01-30T05:51:40;1.30;;;1.30;;
75744;SDS011;74462;51.366;-0.222;2024-01-30T05:52:45;1.60;;;1.50;;
75744;SDS011;74462;51.366;-0.222;2024-01-30T05:53:49;1.60;;;1.50;;
75744;SDS011;74462;51.366;-0.222;2024-01-30T05:54:54;2.40;;;2.20;;
75744;SDS011;74462;51.366;-0.222;2024-01-30T05:55:58;2.40;;;2.30;;
75744;SDS011;74462;51.366;-0.222;2024-01-30T05:57:04;2.50;;;2.30;;
75744;SDS011;74462;51.366;-0.222;2024-01-30T05:58:09;2.40;;;2.30;;
75744;SDS011;74462;51.366;-0.222;2024-01-30T05:59:14;1.90;;;1.80;;
75744;SDS011;74462;51.366;-0.222;2024-01-30T06:00:20;2.30;;;2.20;;
75744;SDS011;74462;51.366;-0.222;2024-01-30T06:01:24;1.90;;;1.40;;
75744;SDS011;74462;51.366;-0.222;2024-01-30T06:02:30;1.10;;;1.00;;
75744;SDS011;74462;51.366;-0.222;2024-01-30T06:03:35;1.50;;;1.40;;
75744;SDS011;74462;51.366;-0.222;2024-01-30T06:04:40;3.10;;;2.20;;
75744;SDS011;74462;51.366;-0.222;2024-01-30T06:05:45;3.90;;;3.70;;
75744;SDS011;74462;51.366;-0.222;2024-01-30T06:06:50;2.50;;;2.30;;
75744;SDS011;74462;51.366;-0.222;2024-01-30T06:07:54;1.50;;;1.20;;
75744;SDS011;74462;51.366;-0.222;2024-01-30T06:08:59;1.40;;;1.20;;
75744;SDS011;74462;51.366;-0.222;2024-01-30T06:10:04;2.60;;;2.40;;
75744;SDS011;74462;51.366;-0.222;2024-01-30T06:11:11;2.10;;;2.00;;
75744;SDS011;74462;51.366;-0.222;2024-01-30T06:12:15;2.90;;;2.40;;
75744;SDS011;74462;51.366;-0.222;2024-01-30T06:13:20;4.00;;;3.00;;
75744;SDS011;74462;51.366;-0.222;2024-01-30T06:14:24;1.60;;;1.50;;
75744;SDS011;74462;51.366;-0.222;2024-01-30T06:15:29;1.80;;;1.50;;
75744;SDS011;74462;51.366;-0.222;2024-01-30T06:16:34;2.80;;;1.40;;
75744;SDS011;74462;51.366;-0.222;2024-01-30T06:17:38;1.90;;;1.80;;
75744;SDS011;74462;51.366;-0.222;2024-01-30T06:18:43;2.60;;;2.40;;
75744;SDS011;74462;51.366;-0.222;2024-01-30T06:19:47;2.50;;;2.40;;
75744;SDS011;74462;51.366;-0.222;2024-01-30T06:20:52;2.70;;;2.40;;
75744;SDS011;74462;51.366;-0.222;2024-01-30T06:21:56;2.00;;;1.80;;
75744;SDS011;74462;51.366;-0.222;2024-01-30T06:23:01;2.80;;;2.30;;
75744;SDS011;74462;51.366;-0.222;2024-01-30T06:24:07;3.20;;;1.70;;